createdAt,value
2022-10-26T00:02:41.001Z,100437.50
2022-10-26T00:07:43.803Z,100435.38
2022-10-26T00:12:51.402Z,100437.00
2022-10-26T00:17:54.153Z,100436.16
2022-10-26T00:22:56.779Z,100443.88
2022-10-26T00:28:00.864Z,100442.38
2022-10-26T00:33:03.483Z,100442.84
2022-10-26T00:38:06.072Z,100447.28
2022-10-26T00:43:15.958Z,100443.97
2022-10-26T00:48:26.389Z,100452.19
2022-10-26T00:53:29.855Z,100448.44
2022-10-26T00:58:34.117Z,100454.47
2022-10-26T01:03:37.095Z,100442.78
2022-10-26T01:08:40.219Z,100440.22
2022-10-26T01:13:45.238Z,100442.13
2022-10-26T01:18:55.254Z,100442.13
2022-10-26T01:24:09.394Z,100454.47
2022-10-26T01:29:34.011Z,100439.44
2022-10-26T01:34:41.936Z,100436.59
2022-10-26T01:39:48.610Z,100439.53
2022-10-26T01:44:54.719Z,100436.38
2022-10-26T01:50:00.381Z,100436.84
2022-10-26T01:55:03.575Z,100420.91
2022-10-26T02:00:08.314Z,100425.94
2022-10-26T02:05:27.327Z,100419.34
2022-10-26T02:10:38.759Z,100420.84
2022-10-26T02:15:49.630Z,100419.56
2022-10-26T02:20:57.594Z,100410.53
2022-10-26T02:26:01.098Z,100411.31
2022-10-26T02:31:05.651Z,100414.75
2022-10-26T02:36:12.846Z,100412.00
2022-10-26T02:41:16.269Z,100409.19
2022-10-26T02:46:21.819Z,100410.84
2022-10-26T02:51:32.814Z,100407.72
2022-10-26T02:56:41.435Z,100413.78
2022-10-26T03:01:45.522Z,100411.09
2022-10-26T03:06:54.571Z,100412.06
2022-10-26T03:11:57.400Z,100401.34
2022-10-26T03:17:00.021Z,100405.25
2022-10-26T03:22:07.298Z,100407.66
2022-10-26T03:27:09.971Z,100398.91
2022-10-26T03:32:12.848Z,100402.69
2022-10-26T03:37:16.799Z,100395.78
2022-10-26T03:42:19.413Z,100382.72
2022-10-26T03:47:22.009Z,100381.91
2022-10-26T03:52:26.077Z,100382.88
2022-10-26T03:57:28.675Z,100370.78
2022-10-26T04:02:31.243Z,100376.34
2022-10-26T04:07:35.232Z,100373.88
2022-10-26T04:12:38.443Z,100373.88
2022-10-26T04:17:41.055Z,100373.25
2022-10-26T04:22:45.142Z,100376.72
2022-10-26T04:27:48.143Z,100375.88
2022-10-26T04:32:51.166Z,100378.00
2022-10-26T04:37:59.950Z,100372.91
2022-10-26T04:43:02.609Z,100375.31
2022-10-26T04:48:06.935Z,100377.75
2022-10-26T04:53:11.256Z,100383.31
2022-10-26T04:58:13.873Z,100378.06
2022-10-26T05:03:16.493Z,100375.59
2022-10-26T05:08:20.451Z,100376.56
2022-10-26T05:13:23.387Z,100374.41
2022-10-26T05:18:26.371Z,100374.53
2022-10-26T05:23:30.305Z,100378.97
2022-10-26T05:28:33.318Z,100368.16
2022-10-26T05:33:35.946Z,100377.16
2022-10-26T05:38:39.906Z,100376.41
2022-10-26T05:43:42.561Z,100367.25
2022-10-26T05:48:45.347Z,100372.63
2022-10-26T05:53:49.830Z,100385.78
2022-10-26T05:58:52.998Z,100393.75
2022-10-26T06:04:08.129Z,100392.78
2022-10-26T06:09:13.120Z,100393.31
2022-10-26T06:14:16.193Z,100395.53
2022-10-26T06:19:29.904Z,100400.78
2022-10-26T06:24:38.767Z,100397.19
2022-10-26T06:29:45.942Z,100405.75
2022-10-26T06:34:50.681Z,100405.75
2022-10-26T06:39:55.860Z,100407.78
2022-10-26T06:44:59.181Z,100413.75
2022-10-26T06:50:05.077Z,100419.97
2022-10-26T06:55:15.240Z,100417.97
2022-10-26T07:00:21.735Z,100416.72
2022-10-26T07:05:24.421Z,100417.50
2022-10-26T07:10:28.408Z,100419.66
2022-10-26T07:15:31.092Z,100405.78
2022-10-26T07:20:37.110Z,100410.28
2022-10-26T07:25:41.177Z,100411.47
2022-10-26T07:30:43.803Z,100410.34
2022-10-26T07:35:46.486Z,100417.41
2022-10-26T07:40:54.175Z,100421.44
2022-10-26T07:45:57.026Z,100420.22
2022-10-26T07:51:03.156Z,100426.66
2022-10-26T07:56:08.132Z,100420.94
2022-10-26T08:01:13.003Z,100418.66
2022-10-26T08:06:15.798Z,100416.03
2022-10-26T08:11:20.055Z,100418.72
2022-10-26T08:16:23.585Z,100411.72
2022-10-26T08:21:39.165Z,100411.13
2022-10-26T08:26:43.899Z,100415.31
2022-10-26T08:31:48.380Z,100405.81
2022-10-26T08:36:51.311Z,100414.63
2022-10-26T08:41:58.293Z,100415.66
2022-10-26T08:47:04.460Z,100417.66
2022-10-26T08:52:07.650Z,100410.44
2022-10-26T08:57:17.538Z,100410.13
2022-10-26T09:02:20.218Z,100406.97
2022-10-26T09:07:34.919Z,100419.34
2022-10-26T09:12:44.502Z,100416.56
2022-10-26T09:17:56.875Z,100420.19
2022-10-26T09:23:04.776Z,100411.84
2022-10-26T09:28:15.481Z,100421.41
2022-10-26T09:33:20.061Z,100428.50
2022-10-26T09:38:26.365Z,100430.63
2022-10-26T09:43:34.778Z,100430.59
2022-10-26T09:48:40.641Z,100421.31
2022-10-26T09:53:43.410Z,100429.81
2022-10-26T09:58:50.070Z,100433.59
2022-10-26T10:04:10.789Z,100437.16
2022-10-26T10:09:14.769Z,100441.59
2022-10-26T10:14:19.078Z,100441.13
2022-10-26T10:19:24.571Z,100444.38
2022-10-26T10:24:31.596Z,100453.38
2022-10-26T10:29:41.634Z,100454.50
2022-10-26T10:34:44.618Z,100451.53
2022-10-26T10:39:48.112Z,100453.91
2022-10-26T10:44:55.393Z,100449.91
2022-10-26T10:50:01.289Z,100454.66
2022-10-26T10:55:17.511Z,100455.38
2022-10-26T11:00:25.294Z,100455.72
2022-10-26T11:05:42.132Z,100456.72
2022-10-26T11:10:48.551Z,100457.81
2022-10-26T11:15:59.341Z,100456.56
2022-10-26T11:21:04.500Z,100462.72
2022-10-26T11:26:12.277Z,100456.88
2022-10-26T11:31:20.236Z,100465.66
2022-10-26T11:36:25.346Z,100460.34
2022-10-26T11:41:32.664Z,100456.69
2022-10-26T11:46:39.937Z,100447.00
2022-10-26T11:51:45.502Z,100461.00
2022-10-26T11:56:50.054Z,100448.94
2022-10-26T12:01:56.879Z,100451.78
2022-10-26T12:07:00.634Z,100456.22
2022-10-26T12:12:07.328Z,100450.78
2022-10-26T12:17:14.718Z,100450.72
2022-10-26T12:22:19.082Z,100455.31
2022-10-26T12:27:32.814Z,100461.16
2022-10-26T12:32:52.576Z,100468.31
2022-10-26T12:37:55.740Z,100461.91
2022-10-26T12:42:58.907Z,100462.38
2022-10-26T12:48:10.964Z,100475.09
2022-10-26T12:53:20.205Z,100462.00
2022-10-26T12:58:42.748Z,100462.53
2022-10-26T13:03:55.617Z,100454.22
2022-10-26T13:09:01.549Z,100446.16
2022-10-26T13:14:09.689Z,100448.97
2022-10-26T13:19:25.245Z,100440.22
2022-10-26T13:24:29.114Z,100447.44
2022-10-26T13:29:32.432Z,100459.94
2022-10-26T13:34:36.636Z,100461.16
2022-10-26T13:39:40.354Z,100462.84
2022-10-26T13:44:46.807Z,100464.81
2022-10-26T13:49:53.439Z,100461.69
2022-10-26T13:54:58.944Z,100470.31
2022-10-26T14:00:04.152Z,100461.00
2022-10-26T14:05:17.721Z,100466.06
2022-10-26T14:10:26.384Z,100479.09
2022-10-26T14:15:31.215Z,100497.81
2022-10-26T14:20:35.427Z,100499.75
2022-10-26T14:25:42.852Z,100491.88
2022-10-26T14:31:15.097Z,100498.09
2022-10-26T14:36:26.309Z,100510.25
2022-10-26T14:41:30.131Z,100516.06
2022-10-26T14:46:35.401Z,100510.75
2022-10-26T14:51:39.511Z,100509.94
2022-10-26T14:56:43.333Z,100508.75
2022-10-26T15:01:51.545Z,100512.41
2022-10-26T15:07:02.741Z,100502.81
2022-10-26T15:12:06.071Z,100511.31
2022-10-26T15:17:20.741Z,100499.25
2022-10-26T15:22:31.788Z,100504.25
2022-10-26T15:27:35.161Z,100509.75
2022-10-26T15:32:38.023Z,100516.81
2022-10-26T15:37:42.718Z,100514.69
2022-10-26T15:42:47.452Z,100527.84
2022-10-26T15:47:52.076Z,100519.47
2022-10-26T15:53:01.355Z,100522.38
2022-10-26T15:58:05.179Z,100522.25
2022-10-26T16:03:07.805Z,100528.09
2022-10-26T16:08:17.115Z,100532.03
2022-10-26T16:13:20.795Z,100528.09
2022-10-26T16:18:23.814Z,100534.91
2022-10-26T16:23:28.022Z,100537.91
2022-10-26T16:28:30.793Z,100540.56
2022-10-26T16:33:34.967Z,100539.91
2022-10-26T16:38:39.340Z,100548.19
2022-10-26T16:43:43.425Z,100556.97
2022-10-26T16:48:47.893Z,100561.78
2022-10-26T16:53:54.238Z,100564.94
2022-10-26T16:58:57.399Z,100576.53
2022-10-26T17:04:00.933Z,100571.75
2022-10-26T17:09:04.993Z,100575.09
2022-10-26T17:14:07.622Z,100576.09
2022-10-26T17:19:11.854Z,100593.78
2022-10-26T17:24:16.027Z,100606.34
2022-10-26T17:29:18.883Z,100619.94
2022-10-26T17:34:21.608Z,100616.00
2022-10-26T17:39:25.725Z,100628.72
2022-10-26T17:44:28.837Z,100630.06
2022-10-26T17:49:35.793Z,100641.13
2022-10-26T17:54:40.314Z,100648.09
2022-10-26T17:59:42.960Z,100651.72
2022-10-26T18:04:46.355Z,100670.59
2022-10-26T18:09:50.334Z,100672.06
2022-10-26T18:14:52.905Z,100678.53
2022-10-26T18:19:55.609Z,100692.59
2022-10-26T18:25:00.187Z,100696.91
2022-10-26T18:30:02.896Z,100694.75
2022-10-26T18:35:06.269Z,100702.50
2022-10-26T18:40:12.103Z,100709.78
2022-10-26T18:45:14.987Z,100708.66
2022-10-26T18:50:17.627Z,100699.38
2022-10-26T18:55:21.632Z,100715.09
2022-10-26T19:00:24.491Z,100723.00
2022-10-26T19:05:29.176Z,100730.09
2022-10-26T19:15:40.817Z,100746.81
2022-10-26T19:20:46.593Z,100753.59
2022-10-26T19:25:56.585Z,100767.78
2022-10-26T19:30:59.715Z,100768.47
2022-10-26T19:36:03.399Z,100772.28
2022-10-26T19:41:09.001Z,100782.00
2022-10-26T19:46:13.265Z,100794.91
2022-10-26T19:51:15.953Z,100798.53
2022-10-26T19:56:20.621Z,100800.84
2022-10-26T20:01:23.638Z,100808.59
2022-10-26T20:06:26.336Z,100819.34
2022-10-26T20:11:32.045Z,100825.78
2022-10-26T20:16:34.736Z,100826.59
2022-10-26T20:21:37.972Z,100831.22
2022-10-26T20:26:41.909Z,100834.53
2022-10-26T20:31:44.526Z,100844.91
2022-10-26T20:36:47.119Z,100835.44
2022-10-26T20:41:51.779Z,100850.50
2022-10-26T20:46:54.962Z,100848.34
2022-10-26T20:52:19.933Z,100855.25
2022-10-26T20:57:29.760Z,100857.59
2022-10-26T21:02:32.798Z,100854.25
2022-10-26T21:07:35.438Z,100857.91
2022-10-26T21:12:40.182Z,100865.19
2022-10-26T21:17:42.819Z,100878.03
2022-10-26T21:22:45.477Z,100879.34
2022-10-26T21:27:49.647Z,100873.22
2022-10-26T21:32:52.964Z,100888.25
2022-10-26T21:37:56.306Z,100895.66
2022-10-26T21:43:00.339Z,100901.75
2022-10-26T21:48:02.958Z,100902.09
2022-10-26T21:53:05.625Z,100905.06
2022-10-26T21:58:09.557Z,100912.97
2022-10-26T22:03:12.144Z,100922.88
2022-10-26T22:08:14.826Z,100916.91
2022-10-26T22:13:19.303Z,100912.13
2022-10-26T22:18:24.591Z,100926.34
2022-10-26T22:23:27.245Z,100932.47
2022-10-26T22:28:32.973Z,100927.31
2022-10-26T22:33:36.241Z,100932.09
2022-10-26T22:38:39.150Z,100936.56
2022-10-26T22:43:43.094Z,100924.81
2022-10-26T22:48:46.266Z,100936.13
2022-10-26T22:53:52.772Z,100942.06
2022-10-26T22:58:57.090Z,100951.47
2022-10-26T23:04:00.141Z,100949.00
2022-10-26T23:09:02.758Z,100953.91
2022-10-26T23:14:06.746Z,100963.09
2022-10-26T23:19:09.563Z,100968.19
2022-10-26T23:24:12.311Z,100963.06
2022-10-26T23:29:16.405Z,100975.06
2022-10-26T23:34:19.584Z,100972.22
2022-10-26T23:39:22.409Z,100976.81
2022-10-26T23:44:26.378Z,100989.78
2022-10-26T23:49:29.131Z,100991.19
2022-10-26T23:54:31.757Z,100987.69
2022-10-26T23:59:35.862Z,101000.63
